Главная страница
METAR-TAF:

METAR-TAF

Аэропорты :

Тунис, Тунис

Тунис-Карфаген

широта: 36-50N, долгота: 010-14E, высота над уровнем моря: 3 м

Текущие метеонаблюдения

Эта сводка был подготовлена 39 минут назад, в 13:30 UTC
Ветер 7 Узел от северо-северо-восточный, изменяющийся между северо-западный и восточно-северо-восточный
Температура 25°C
Влажность 54%
Давление 1016 hPa
Видимость 10 км и более
небольшая облачность на высоте 2600 фута

METAR: DTTA 221330Z 03007KT 320V060 9999 FEW026 25/15 Q1016 NOSIG

Время: 15:09 (14:09 UTC)

Прогноз

Эта сводка был подготовлена 2 часа и 36 минут назад, в 11:33 UTC
Прогноз действительный с 22-го 12 UTC до 23-го 12 UTC
Ветер 8 Узел от восточно-северо-восточный
Видимость 10 км и более
Нет облачности ниже 1500 м, и нет кучево-дождевой облачности

TAF: DTTA 221133Z 2212/2312 07008KT CAVOK

Метеонаблюдения и прогнозы для более 4000 аэропортов (сводки METAR и TAF).

Имеющиеся станции представлены на карте желтыми и красными точками.

Чтобы увидеть название станции, наведите на нее мышь.

Затем щелкните, чтобы увидеть метеонаблюдения и метеопрогнозы.

Управление картой: чтобы увеличить масштаб, щелкните зеленые кнопки с черным крестиком; чтобы уменьшить масштаб, щелкните зеленую кнопку с тире; для просмотра соседних карт щелкайте зеленые стрелки.


METAR-TAF: